createdAt,value
2018-12-12T00:01:53.109Z,2.17
2018-12-12T00:04:21.878Z,2.10
2018-12-12T00:06:51.907Z,2.17
2018-12-12T00:09:20.503Z,2.10
2018-12-12T00:11:49.183Z,2.12
2018-12-12T00:14:18.316Z,2.25
2018-12-12T00:16:46.871Z,1.85
2018-12-12T00:19:16.150Z,1.90
2018-12-12T00:21:44.653Z,2.05
2018-12-12T00:24:13.205Z,1.86
2018-12-12T00:26:43.798Z,1.59
2018-12-12T00:29:13.770Z,1.58
2018-12-12T00:31:42.377Z,1.64
2018-12-12T00:34:11.534Z,1.77
2018-12-12T00:36:40.050Z,2.02
2018-12-12T00:39:09.440Z,2.05
2018-12-12T00:41:39.195Z,1.62
2018-12-12T00:44:07.821Z,2.32
2018-12-12T00:46:36.801Z,2.24
2018-12-12T00:49:05.453Z,2.01
2018-12-12T00:51:36.302Z,2.25
2018-12-12T00:54:04.791Z,2.33
2018-12-12T00:56:33.294Z,2.37
2018-12-12T00:59:02.961Z,2.38
2018-12-12T01:01:31.491Z,2.17
2018-12-12T01:04:00.019Z,2.36
2018-12-12T01:06:29.118Z,2.39
2018-12-12T01:08:57.691Z,2.38
2018-12-12T01:11:31.661Z,2.28
2018-12-12T01:14:00.108Z,1.88
2018-12-12T01:16:28.632Z,1.90
2018-12-12T01:18:57.218Z,1.80
2018-12-12T01:21:25.838Z,1.91
2018-12-12T01:23:54.381Z,2.14
2018-12-12T01:26:22.955Z,2.22
2018-12-12T01:28:51.540Z,2.40
2018-12-12T01:31:20.073Z,2.45
2018-12-12T01:33:49.201Z,2.56
2018-12-12T01:36:17.746Z,2.60
2018-12-12T01:38:46.236Z,2.62
2018-12-12T01:41:14.854Z,2.65
2018-12-12T01:43:43.369Z,2.60
2018-12-12T01:46:11.959Z,2.65
2018-12-12T01:48:41.557Z,2.36
2018-12-12T01:51:10.234Z,1.88
2018-12-12T01:53:39.721Z,2.22
2018-12-12T01:56:08.217Z,2.21
2018-12-12T01:58:37.043Z,1.93
2018-12-12T02:01:05.568Z,1.78
2018-12-12T02:03:34.068Z,1.75
2018-12-12T02:06:02.655Z,1.94
2018-12-12T02:08:31.274Z,1.73
2018-12-12T02:10:59.775Z,1.59
2018-12-12T02:13:35.641Z,1.62
2018-12-12T02:16:05.950Z,-0.71
2018-12-12T02:18:35.671Z,1.40
2018-12-12T02:21:05.805Z,1.76
2018-12-12T02:23:34.262Z,1.50
2018-12-12T02:26:03.400Z,1.55
2018-12-12T02:28:31.982Z,1.36
2018-12-12T02:31:00.533Z,1.74
2018-12-12T02:33:29.110Z,1.44
2018-12-12T02:35:57.650Z,1.13
2018-12-12T02:38:26.280Z,1.16
2018-12-12T02:40:55.377Z,1.01
2018-12-12T02:43:23.866Z,1.06
2018-12-12T02:45:52.437Z,1.48
2018-12-12T02:48:20.912Z,1.19
2018-12-12T02:50:49.536Z,1.09
2018-12-12T02:53:18.148Z,1.05
2018-12-12T02:55:47.500Z,1.11
2018-12-12T02:58:16.290Z,0.69
2018-12-12T03:00:45.576Z,0.95
2018-12-12T03:03:14.639Z,1.16
2018-12-12T03:05:43.912Z,1.36
2018-12-12T03:08:12.403Z,1.40
2018-12-12T03:10:40.914Z,1.11
2018-12-12T03:13:09.620Z,1.37
2018-12-12T03:15:38.136Z,1.06
2018-12-12T03:18:06.749Z,1.13
2018-12-12T03:20:35.294Z,1.27
2018-12-12T03:23:04.363Z,1.06
2018-12-12T03:25:32.898Z,0.96
2018-12-12T03:28:01.386Z,0.38
2018-12-12T03:30:30.535Z,0.36
2018-12-12T03:32:59.107Z,0.80
2018-12-12T03:35:28.288Z,0.79
2018-12-12T03:37:56.802Z,1.03
2018-12-12T03:40:25.870Z,0.50
2018-12-12T03:42:55.387Z,0.27
2018-12-12T03:45:23.866Z,0.21
2018-12-12T03:47:52.444Z,0.38
2018-12-12T03:50:20.981Z,0.29
2018-12-12T03:52:49.546Z,0.41
2018-12-12T03:55:18.142Z,0.48
2018-12-12T03:57:47.234Z,0.26
2018-12-12T04:00:16.212Z,0.39
2018-12-12T04:02:44.874Z,0.71
2018-12-12T04:05:13.830Z,0.24
2018-12-12T04:07:42.465Z,0.37
2018-12-12T04:10:11.406Z,0.15
2018-12-12T04:12:40.230Z,0.57
2018-12-12T04:15:09.540Z,0.80
2018-12-12T04:17:38.271Z,0.94
2018-12-12T04:20:07.721Z,1.05
2018-12-12T04:22:36.842Z,0.56
2018-12-12T04:25:06.880Z,0.98
2018-12-12T04:27:35.387Z,1.01
2018-12-12T04:30:04.315Z,0.67
2018-12-12T04:32:32.901Z,-0.53
2018-12-12T04:35:01.390Z,0.26
2018-12-12T04:37:30.136Z,0.57
2018-12-12T04:39:59.765Z,0.63
2018-12-12T04:42:28.379Z,0.46
2018-12-12T04:44:56.867Z,0.06
2018-12-12T04:47:25.331Z,0.44
2018-12-12T04:49:54.626Z,0.46
2018-12-12T04:52:23.184Z,0.46
2018-12-12T04:54:51.795Z,0.62
2018-12-12T04:57:20.314Z,0.87
2018-12-12T04:59:48.893Z,0.97
2018-12-12T05:02:21.844Z,0.85
2018-12-12T05:04:50.889Z,0.95
2018-12-12T05:07:19.443Z,1.06
2018-12-12T05:09:48.040Z,0.92
2018-12-12T05:12:16.773Z,0.98
2018-12-12T05:14:45.409Z,1.00
2018-12-12T05:17:13.998Z,0.45
2018-12-12T05:19:43.010Z,0.60
2018-12-12T05:22:11.710Z,0.30
2018-12-12T05:24:41.029Z,0.45
2018-12-12T05:27:09.563Z,0.46
2018-12-12T05:29:38.471Z,0.61
2018-12-12T05:32:06.928Z,0.70
2018-12-12T05:34:35.969Z,0.53
2018-12-12T05:37:04.459Z,0.44
2018-12-12T05:39:33.639Z,0.49
2018-12-12T05:42:02.700Z,0.18
2018-12-12T05:44:31.476Z,0.21
2018-12-12T05:46:59.934Z,0.12
2018-12-12T05:49:28.564Z,0.02
2018-12-12T05:51:57.637Z,-0.17
2018-12-12T05:54:28.385Z,-0.46
2018-12-12T05:57:01.029Z,0.11
2018-12-12T05:59:31.091Z,0.02
2018-12-12T06:02:00.436Z,0.38
2018-12-12T06:04:30.618Z,0.26
2018-12-12T06:07:00.586Z,0.40
2018-12-12T06:09:29.279Z,0.33
2018-12-12T06:11:57.876Z,0.53
2018-12-12T06:14:26.385Z,0.64
2018-12-12T06:16:55.248Z,0.18
2018-12-12T06:19:24.155Z,0.34
2018-12-12T06:21:53.214Z,0.17
2018-12-12T06:24:21.987Z,0.41
2018-12-12T06:26:50.638Z,0.25
2018-12-12T06:29:19.281Z,0.31
2018-12-12T06:31:48.516Z,0.32
2018-12-12T06:34:17.217Z,-0.22
2018-12-12T06:36:45.802Z,0.03
2018-12-12T06:39:16.554Z,0.07
2018-12-12T06:41:45.037Z,0.29
2018-12-12T06:44:14.388Z,-0.07
2018-12-12T06:46:43.028Z,-0.35
2018-12-12T06:49:12.935Z,-0.06
2018-12-12T06:53:05.901Z,0.35
2018-12-12T06:55:34.426Z,0.24
2018-12-12T06:58:03.062Z,-0.02
2018-12-12T07:00:31.613Z,0.08
2018-12-12T07:03:01.120Z,-0.34
2018-12-12T07:05:30.474Z,-0.64
2018-12-12T07:07:59.205Z,-0.54
2018-12-12T07:10:27.931Z,-0.84
2018-12-12T07:12:56.520Z,-0.21
2018-12-12T07:15:25.661Z,0.12
2018-12-12T07:17:54.957Z,0.23
2018-12-12T07:20:23.661Z,0.34
2018-12-12T07:22:52.269Z,0.28
2018-12-12T07:25:22.046Z,0.18
2018-12-12T07:27:50.505Z,0.20
2018-12-12T07:30:19.002Z,0.07
2018-12-12T07:32:47.530Z,-0.13
2018-12-12T07:35:16.216Z,-0.19
2018-12-12T07:37:45.418Z,-0.08
2018-12-12T07:40:14.450Z,-1.46
2018-12-12T07:42:43.149Z,-0.17
2018-12-12T07:45:11.825Z,-0.01
2018-12-12T07:47:40.277Z,0.15
2018-12-12T07:50:08.793Z,-0.04
2018-12-12T07:52:37.365Z,0.00
2018-12-12T07:55:07.082Z,-0.52
2018-12-12T07:57:36.383Z,-0.60
2018-12-12T08:00:05.223Z,-0.71
2018-12-12T08:02:34.077Z,-0.53
2018-12-12T08:05:02.670Z,-0.20
2018-12-12T08:07:31.974Z,0.11
2018-12-12T08:10:00.762Z,-0.03
2018-12-12T08:12:29.291Z,0.08
2018-12-12T08:14:58.491Z,0.28
2018-12-12T08:17:27.483Z,0.50
2018-12-12T08:19:56.809Z,0.57
2018-12-12T08:22:25.758Z,0.61
2018-12-12T08:24:55.158Z,0.64
2018-12-12T08:27:24.338Z,0.70
2018-12-12T08:29:52.854Z,0.24
2018-12-12T08:32:21.366Z,0.33
2018-12-12T08:34:51.157Z,0.81
2018-12-12T08:37:19.673Z,0.92
2018-12-12T08:39:48.194Z,0.91
2018-12-12T08:42:16.752Z,0.99
2018-12-12T08:44:45.271Z,0.45
2018-12-12T08:47:14.362Z,0.45
2018-12-12T08:49:42.766Z,0.62
2018-12-12T08:52:12.027Z,0.64
2018-12-12T08:54:40.503Z,0.62
2018-12-12T08:57:09.379Z,0.81
2018-12-12T08:59:37.954Z,0.72
2018-12-12T09:02:08.530Z,0.46
2018-12-12T09:04:38.402Z,0.33
2018-12-12T09:07:07.475Z,0.50
2018-12-12T09:09:36.163Z,0.55
2018-12-12T09:12:04.643Z,0.64
2018-12-12T09:14:33.833Z,0.61
2018-12-12T09:17:02.305Z,0.53
2018-12-12T09:19:30.745Z,0.61
2018-12-12T09:21:59.297Z,0.31
2018-12-12T09:24:28.012Z,0.47
2018-12-12T09:26:56.618Z,0.87
2018-12-12T09:29:25.549Z,1.04
2018-12-12T09:31:54.097Z,1.32
2018-12-12T09:34:22.568Z,1.53
2018-12-12T09:36:51.117Z,1.59
2018-12-12T09:39:19.763Z,1.35
2018-12-12T09:41:48.345Z,1.47
2018-12-12T09:44:17.681Z,0.94
2018-12-12T09:46:46.238Z,1.08
2018-12-12T09:49:15.435Z,1.63
2018-12-12T09:51:44.439Z,1.87
2018-12-12T09:54:12.922Z,0.99
2018-12-12T09:56:41.462Z,0.43
2018-12-12T09:59:10.234Z,0.58
2018-12-12T10:01:38.820Z,0.42
2018-12-12T10:04:07.342Z,0.99
2018-12-12T10:06:35.942Z,1.21
2018-12-12T10:09:07.052Z,1.01
2018-12-12T10:11:35.521Z,1.31
2018-12-12T10:14:04.047Z,1.47
2018-12-12T10:16:32.581Z,1.63
2018-12-12T10:19:01.018Z,1.82
2018-12-12T10:21:30.719Z,1.17
2018-12-12T10:23:59.245Z,1.33
2018-12-12T10:26:27.738Z,1.55
2018-12-12T10:28:57.010Z,1.35
2018-12-12T10:31:25.634Z,1.02
2018-12-12T10:33:54.758Z,1.21
2018-12-12T10:36:24.071Z,1.88
2018-12-12T10:38:53.470Z,1.91
2018-12-12T10:41:22.774Z,2.34
2018-12-12T10:43:51.397Z,1.52
2018-12-12T10:46:19.919Z,2.12
2018-12-12T10:48:48.399Z,1.91
2018-12-12T10:51:16.929Z,2.34
2018-12-12T10:53:45.534Z,2.83
2018-12-12T10:56:13.989Z,2.98
2018-12-12T10:58:43.010Z,3.18
2018-12-12T11:01:17.178Z,3.25
2018-12-12T11:03:46.247Z,3.17
2018-12-12T11:06:16.001Z,3.56
2018-12-12T11:08:44.541Z,3.33
2018-12-12T11:11:13.892Z,3.51
2018-12-12T11:13:43.855Z,2.94
2018-12-12T11:16:12.844Z,2.67
2018-12-12T11:18:42.049Z,2.26
2018-12-12T11:21:10.672Z,1.98
2018-12-12T11:23:40.059Z,2.15
2018-12-12T11:26:08.533Z,2.87
2018-12-12T11:28:37.813Z,2.92
2018-12-12T11:31:06.430Z,2.76
2018-12-12T11:33:35.669Z,2.03
2018-12-12T11:36:04.181Z,2.62
2018-12-12T11:38:34.161Z,2.50
2018-12-12T11:41:04.015Z,2.72
2018-12-12T11:43:33.230Z,2.32
2018-12-12T11:46:01.744Z,1.92
2018-12-12T11:48:31.252Z,2.17
2018-12-12T11:50:59.870Z,2.67
2018-12-12T11:53:29.718Z,2.23
2018-12-12T11:55:58.218Z,2.50
2018-12-12T11:58:27.354Z,2.72
2018-12-12T12:00:55.814Z,2.31
2018-12-12T12:03:24.338Z,2.86
2018-12-12T12:05:52.814Z,2.96
2018-12-12T12:08:21.457Z,4.03
2018-12-12T12:10:50.032Z,4.05
2018-12-12T12:13:18.807Z,3.99
2018-12-12T12:15:47.389Z,3.81
2018-12-12T12:18:16.025Z,2.88
2018-12-12T12:20:44.678Z,3.09
2018-12-12T12:23:14.005Z,3.19
2018-12-12T12:25:43.258Z,2.63
2018-12-12T12:28:11.882Z,2.59
2018-12-12T12:30:40.393Z,2.77
2018-12-12T12:33:08.907Z,2.95
2018-12-12T12:35:37.705Z,3.47
2018-12-12T12:38:06.174Z,3.68
2018-12-12T12:40:34.703Z,3.93
2018-12-12T12:43:03.246Z,4.24
2018-12-12T12:45:31.759Z,4.15
2018-12-12T12:48:00.316Z,4.39
2018-12-12T12:50:28.913Z,4.79
2018-12-12T12:52:57.346Z,4.72
2018-12-12T12:55:25.871Z,4.98
2018-12-12T12:57:54.374Z,4.75
2018-12-12T13:00:22.981Z,4.31
2018-12-12T13:02:51.460Z,4.43
2018-12-12T13:05:20.038Z,4.15
2018-12-12T13:07:48.621Z,4.35
2018-12-12T13:10:17.479Z,4.42
2018-12-12T13:12:46.671Z,4.50
2018-12-12T13:15:15.824Z,4.57
2018-12-12T13:17:44.328Z,4.50
2018-12-12T13:20:12.847Z,4.44
2018-12-12T13:22:43.199Z,4.48
2018-12-12T13:25:11.823Z,4.57
2018-12-12T13:27:40.298Z,4.59
2018-12-12T13:30:09.106Z,4.60
2018-12-12T13:32:37.664Z,4.58
2018-12-12T13:35:07.408Z,4.59
2018-12-12T13:37:37.985Z,4.67
2018-12-12T13:40:07.362Z,4.48
2018-12-12T13:42:35.837Z,4.52
2018-12-12T13:45:04.501Z,4.35
2018-12-12T13:47:32.941Z,4.29
2018-12-12T13:50:01.528Z,4.32
2018-12-12T13:52:30.091Z,4.29
2018-12-12T13:54:58.773Z,4.42
2018-12-12T13:57:27.300Z,4.62
2018-12-12T13:59:56.561Z,4.62
2018-12-12T14:02:25.162Z,4.65
2018-12-12T14:04:53.652Z,4.65
2018-12-12T14:07:22.098Z,4.58
2018-12-12T14:09:50.760Z,4.34
2018-12-12T14:12:19.312Z,4.02
2018-12-12T14:14:47.880Z,3.90
2018-12-12T14:17:16.370Z,4.23
2018-12-12T14:19:44.936Z,4.13
2018-12-12T14:22:13.479Z,4.25
2018-12-12T14:24:41.997Z,4.28
2018-12-12T14:27:10.529Z,3.45
2018-12-12T14:29:38.985Z,4.28
2018-12-12T14:32:08.162Z,4.35
2018-12-12T14:34:36.736Z,4.36
2018-12-12T14:37:05.286Z,4.33
2018-12-12T14:39:33.826Z,4.25
2018-12-12T14:42:02.424Z,4.15
2018-12-12T14:44:30.863Z,4.04
2018-12-12T14:46:59.375Z,3.79
2018-12-12T14:49:27.892Z,3.83
2018-12-12T14:51:56.442Z,3.92
2018-12-12T14:54:24.910Z,3.67
2018-12-12T14:56:54.502Z,3.33
2018-12-12T14:59:23.010Z,3.24
2018-12-12T15:01:51.720Z,3.32
2018-12-12T15:04:20.339Z,3.41
2018-12-12T15:06:48.935Z,3.45
2018-12-12T15:09:17.934Z,3.40
2018-12-12T15:11:46.582Z,3.42
2018-12-12T15:14:15.481Z,2.66
2018-12-12T15:16:44.155Z,3.21
2018-12-12T15:19:12.715Z,3.37
2018-12-12T15:21:41.324Z,3.23
2018-12-12T15:24:09.887Z,3.38
2018-12-12T15:26:38.599Z,3.41
2018-12-12T15:29:07.229Z,3.54
2018-12-12T15:31:35.838Z,3.30
2018-12-12T15:34:05.188Z,3.39
2018-12-12T15:36:33.866Z,3.45
2018-12-12T15:39:02.515Z,3.46
2018-12-12T15:41:31.206Z,3.57
2018-12-12T15:44:01.045Z,3.49
2018-12-12T15:46:30.550Z,3.50
2018-12-12T15:48:59.124Z,3.50
2018-12-12T15:51:27.952Z,3.53
2018-12-12T15:53:56.600Z,3.40
2018-12-12T15:56:25.261Z,3.39
2018-12-12T15:58:53.905Z,3.34
2018-12-12T16:01:22.656Z,3.20
2018-12-12T16:03:51.254Z,3.23
2018-12-12T16:06:19.836Z,3.06
2018-12-12T16:08:48.598Z,3.06
2018-12-12T16:11:23.596Z,2.92
2018-12-12T16:13:53.795Z,2.85
2018-12-12T16:16:22.336Z,2.75
2018-12-12T16:18:50.897Z,2.66
2018-12-12T16:21:19.814Z,2.63
2018-12-12T16:23:48.388Z,2.53
2018-12-12T16:26:16.905Z,2.41
2018-12-12T16:28:45.409Z,2.54
2018-12-12T16:31:14.073Z,2.47
2018-12-12T16:33:43.917Z,2.49
2018-12-12T16:36:13.825Z,2.56
2018-12-12T16:38:42.347Z,2.56
2018-12-12T16:41:10.852Z,2.55
2018-12-12T16:43:39.461Z,2.42
2018-12-12T16:46:08.239Z,2.42
2018-12-12T16:48:36.764Z,2.43
2018-12-12T16:51:05.369Z,2.39
2018-12-12T16:53:34.178Z,2.32
2018-12-12T16:56:02.670Z,2.32
2018-12-12T16:58:31.266Z,2.29
2018-12-12T17:01:02.186Z,2.32
2018-12-12T17:03:30.790Z,2.33
2018-12-12T17:06:11.292Z,2.21
2018-12-12T17:08:40.348Z,2.15
2018-12-12T17:11:09.760Z,2.11
2018-12-12T17:13:38.352Z,1.98
2018-12-12T17:16:06.827Z,1.95
2018-12-12T17:18:35.624Z,1.83
2018-12-12T17:21:04.807Z,1.78
2018-12-12T17:23:33.294Z,1.79
2018-12-12T17:26:02.067Z,1.72
2018-12-12T17:28:30.611Z,1.71
2018-12-12T17:30:59.208Z,1.66
2018-12-12T17:33:27.943Z,1.49
2018-12-12T17:35:56.552Z,1.47
2018-12-12T17:38:25.400Z,1.68
2018-12-12T17:40:54.405Z,1.63
2018-12-12T17:43:23.613Z,1.79
2018-12-12T17:45:52.455Z,1.83
2018-12-12T17:48:22.606Z,1.84
2018-12-12T17:50:51.407Z,1.89
2018-12-12T17:53:20.448Z,1.76
2018-12-12T17:55:49.162Z,1.91
2018-12-12T17:58:17.734Z,1.97
2018-12-12T18:00:46.463Z,2.00
2018-12-12T18:03:18.534Z,2.06
2018-12-12T18:05:48.844Z,2.14
2018-12-12T18:08:18.390Z,2.22
2018-12-12T18:10:47.614Z,2.24
2018-12-12T18:13:17.712Z,2.23
2018-12-12T18:15:47.188Z,2.26
2018-12-12T18:18:15.986Z,2.23
2018-12-12T18:20:44.574Z,2.22
2018-12-12T18:23:17.522Z,2.29
2018-12-12T18:25:46.167Z,2.25
2018-12-12T18:28:18.461Z,2.27
2018-12-12T18:30:59.935Z,2.30
2018-12-12T18:33:28.887Z,2.33
2018-12-12T18:36:12.310Z,2.34
2018-12-12T18:38:41.059Z,2.36
2018-12-12T18:41:09.817Z,2.37
2018-12-12T18:43:44.029Z,2.33
2018-12-12T18:46:19.949Z,2.34
2018-12-12T18:48:48.723Z,2.37
2018-12-12T18:51:17.747Z,2.38
2018-12-12T18:53:46.451Z,2.21
2018-12-12T18:56:15.332Z,2.36
2018-12-12T18:58:44.483Z,2.46
2018-12-12T19:01:13.218Z,2.20
2018-12-12T19:03:41.967Z,2.45
2018-12-12T19:06:10.722Z,2.31
2018-12-12T19:08:39.294Z,2.09
2018-12-12T19:11:07.955Z,2.11
2018-12-12T19:13:37.061Z,2.19
2018-12-12T19:16:05.744Z,2.44
2018-12-12T19:18:34.291Z,2.32
2018-12-12T19:21:03.016Z,2.40
2018-12-12T19:23:31.961Z,2.43
2018-12-12T19:26:00.602Z,2.46
2018-12-12T19:28:29.251Z,2.39
2018-12-12T19:30:58.129Z,2.51
2018-12-12T19:33:26.790Z,2.20
2018-12-12T19:35:55.418Z,2.35
2018-12-12T19:38:23.955Z,2.30
2018-12-12T19:40:52.594Z,2.44
2018-12-12T19:43:21.108Z,2.49
2018-12-12T19:45:49.651Z,2.54
2018-12-12T19:48:18.240Z,2.43
2018-12-12T19:50:46.963Z,2.32
2018-12-12T19:53:15.490Z,2.46
2018-12-12T19:55:44.073Z,2.31
2018-12-12T19:58:12.638Z,2.61
2018-12-12T20:00:41.254Z,2.63
2018-12-12T20:03:09.830Z,2.63
2018-12-12T20:05:41.462Z,2.49
2018-12-12T20:08:09.569Z,2.80
2018-12-12T20:10:40.164Z,2.82
2018-12-12T20:13:08.701Z,2.78
2018-12-12T20:15:46.616Z,2.82
2018-12-12T20:18:15.145Z,2.77
2018-12-12T20:20:49.205Z,2.89
2018-12-12T20:23:17.698Z,2.87
2018-12-12T20:25:46.237Z,2.77
2018-12-12T20:28:14.818Z,2.76
2018-12-12T20:30:43.400Z,2.81
2018-12-12T20:33:12.460Z,2.88
2018-12-12T20:35:40.907Z,2.85
2018-12-12T20:38:12.716Z,2.89
2018-12-12T20:40:41.244Z,2.80
2018-12-12T20:43:09.739Z,2.80
2018-12-12T20:45:38.273Z,2.73
2018-12-12T20:48:06.751Z,2.79
2018-12-12T20:50:35.216Z,2.68
2018-12-12T20:53:03.713Z,2.70
2018-12-12T20:55:32.213Z,2.62
2018-12-12T20:58:00.688Z,2.51
2018-12-12T21:00:29.138Z,2.42
2018-12-12T21:02:57.691Z,2.40
2018-12-12T21:05:26.169Z,2.40
2018-12-12T21:07:55.250Z,2.23
2018-12-12T21:13:55.197Z,2.03
2018-12-12T21:16:23.681Z,1.90
2018-12-12T21:18:52.211Z,1.96
2018-12-12T21:21:20.661Z,1.90
2018-12-12T21:23:49.128Z,1.92
2018-12-12T21:26:18.130Z,1.95
2018-12-12T21:28:46.777Z,1.85
2018-12-12T21:31:15.259Z,1.87
2018-12-12T21:33:43.727Z,2.53
2018-12-12T21:36:12.182Z,2.21
2018-12-12T21:38:40.653Z,2.02
2018-12-12T21:41:10.075Z,1.92
2018-12-12T21:43:39.157Z,1.85
2018-12-12T21:46:07.646Z,1.72
2018-12-12T21:48:36.098Z,1.80
2018-12-12T21:51:04.639Z,1.85
2018-12-12T21:53:33.155Z,1.78
2018-12-12T21:56:01.735Z,1.55
2018-12-12T21:58:30.265Z,1.69
2018-12-12T22:00:58.753Z,1.61
2018-12-12T22:03:27.263Z,1.68
2018-12-12T22:05:56.113Z,1.62
2018-12-12T22:08:24.683Z,1.57
2018-12-12T22:10:53.185Z,1.59
2018-12-12T22:13:22.760Z,1.45
2018-12-12T22:15:51.498Z,1.42
2018-12-12T22:18:20.601Z,1.38
2018-12-12T22:20:50.490Z,1.37
2018-12-12T22:23:19.064Z,1.36
2018-12-12T22:25:48.105Z,1.34
2018-12-12T22:28:16.665Z,1.28
2018-12-12T22:30:45.124Z,1.30
2018-12-12T22:33:13.645Z,1.31
2018-12-12T22:35:42.308Z,1.06
2018-12-12T22:38:10.845Z,1.30
2018-12-12T22:40:39.301Z,1.22
2018-12-12T22:43:07.806Z,1.46
2018-12-12T22:45:36.277Z,1.39
2018-12-12T22:48:04.962Z,1.56
2018-12-12T22:50:33.466Z,1.46
2018-12-12T22:53:01.953Z,1.46
2018-12-12T22:55:31.202Z,1.62
2018-12-12T22:57:59.689Z,1.59
2018-12-12T23:00:33.625Z,1.46
2018-12-12T23:03:02.150Z,1.46
2018-12-12T23:05:30.642Z,1.30
2018-12-12T23:07:59.269Z,1.56
2018-12-12T23:10:27.749Z,1.37
2018-12-12T23:12:56.305Z,1.45
2018-12-12T23:15:25.313Z,1.48
2018-12-12T23:17:53.901Z,1.51
2018-12-12T23:20:22.962Z,1.50
2018-12-12T23:22:51.726Z,1.68
2018-12-12T23:25:20.274Z,1.50
2018-12-12T23:27:48.782Z,1.54
2018-12-12T23:30:17.306Z,1.52
2018-12-12T23:32:45.830Z,1.47
2018-12-12T23:35:14.313Z,1.35
2018-12-12T23:37:42.818Z,1.40
2018-12-12T23:40:11.396Z,1.34
2018-12-12T23:42:39.920Z,1.43
2018-12-12T23:45:08.440Z,1.35
2018-12-12T23:47:37.147Z,1.52
2018-12-12T23:50:05.965Z,1.32
2018-12-12T23:52:34.524Z,1.30
2018-12-12T23:55:03.010Z,1.34
2018-12-12T23:57:33.385Z,1.35
